createdAt,value
2023-04-17T00:02:55.210Z,22.00
2023-04-17T00:07:57.057Z,20.33
2023-04-17T00:12:58.386Z,20.52
2023-04-17T00:17:59.813Z,21.52
2023-04-17T00:23:01.218Z,22.70
2023-04-17T00:28:02.677Z,22.58
2023-04-17T00:33:04.763Z,19.33
2023-04-17T00:38:07.821Z,19.63
2023-04-17T00:43:09.198Z,24.40
2023-04-17T00:48:10.821Z,17.95
2023-04-17T00:53:12.339Z,18.55
2023-04-17T00:58:14.278Z,24.65
2023-04-17T01:03:17.164Z,20.33
2023-04-17T01:08:19.135Z,19.75
2023-04-17T01:13:20.565Z,24.23
2023-04-17T01:18:21.957Z,26.13
2023-04-17T01:23:23.337Z,21.13
2023-04-17T01:28:24.730Z,23.80
2023-04-17T01:33:26.112Z,20.70
2023-04-17T01:38:27.493Z,19.15
2023-04-17T01:43:28.866Z,22.13
2023-04-17T01:48:30.454Z,22.30
2023-04-17T01:53:32.408Z,20.92
2023-04-17T01:58:33.777Z,18.88
2023-04-17T02:03:35.212Z,21.98
2023-04-17T02:08:36.769Z,21.55
2023-04-17T02:13:38.550Z,19.15
2023-04-17T02:18:40.723Z,19.52
2023-04-17T02:23:42.476Z,20.00
2023-04-17T02:28:45.058Z,19.67
2023-04-17T02:33:47.129Z,21.08
2023-04-17T02:38:48.545Z,18.75
2023-04-17T02:43:49.901Z,21.48
2023-04-17T02:48:51.276Z,20.65
2023-04-17T02:53:52.670Z,23.42
2023-04-17T02:58:54.105Z,21.75
2023-04-17T03:03:56.138Z,20.50
2023-04-17T03:08:57.867Z,21.88
2023-04-17T03:13:59.234Z,28.27
2023-04-17T03:19:02.931Z,22.88
2023-04-17T03:24:04.421Z,22.27
2023-04-17T03:29:06.102Z,21.48
2023-04-17T03:34:07.688Z,21.55
2023-04-17T03:39:09.162Z,20.33
2023-04-17T03:44:10.675Z,20.02
2023-04-17T03:49:12.229Z,19.75
2023-04-17T03:54:13.902Z,26.17
2023-04-17T03:59:15.269Z,22.90
2023-04-17T04:04:17.082Z,22.15
2023-04-17T04:09:18.525Z,25.17
2023-04-17T04:14:19.959Z,24.35
2023-04-17T04:19:21.286Z,24.00
2023-04-17T04:24:23.669Z,23.38
2023-04-17T04:29:25.647Z,26.20
2023-04-17T04:34:29.774Z,23.70
2023-04-17T04:39:31.187Z,28.45
2023-04-17T04:44:32.517Z,24.83
2023-04-17T04:49:33.841Z,25.55
2023-04-17T04:54:35.185Z,25.10
2023-04-17T04:59:38.895Z,25.23
2023-04-17T05:04:41.191Z,29.38
2023-04-17T05:09:43.294Z,27.60
2023-04-17T05:14:44.737Z,25.67
2023-04-17T05:19:46.174Z,29.27
2023-04-17T05:24:47.553Z,24.40
2023-04-17T05:29:49.192Z,20.15
2023-04-17T05:34:50.668Z,18.30
2023-04-17T05:39:52.651Z,21.15
2023-04-17T05:44:54.098Z,19.20
2023-04-17T05:49:58.197Z,14.40
2023-04-17T05:54:59.587Z,16.30
2023-04-17T06:00:01.226Z,13.00
2023-04-17T06:05:02.912Z,15.45
2023-04-17T06:10:05.547Z,15.27
2023-04-17T06:15:09.244Z,12.88
2023-04-17T06:20:11.197Z,14.40
2023-04-17T06:25:13.072Z,12.23
2023-04-17T06:30:14.490Z,18.95
2023-04-17T06:35:16.157Z,16.52
2023-04-17T06:40:17.607Z,15.15
2023-04-17T06:45:19.043Z,13.93
2023-04-17T06:50:20.514Z,13.57
2023-04-17T06:55:21.908Z,15.57
2023-04-17T07:00:23.310Z,16.25
2023-04-17T07:05:24.759Z,13.48
2023-04-17T07:10:26.227Z,16.20
2023-04-17T07:15:30.573Z,11.20
2023-04-17T07:20:32.164Z,10.50
2023-04-17T07:25:33.549Z,12.30
2023-04-17T07:30:35.731Z,13.00
2023-04-17T07:35:37.330Z,16.25
2023-04-17T07:40:39.377Z,10.38
2023-04-17T07:45:41.984Z,13.35
2023-04-17T07:50:43.553Z,14.85
2023-04-17T07:55:44.983Z,15.90
2023-04-17T08:00:46.734Z,13.10
2023-04-17T08:05:48.739Z,11.82
2023-04-17T08:10:50.659Z,11.60
2023-04-17T08:15:52.135Z,10.43
2023-04-17T08:20:53.781Z,8.45
2023-04-17T08:25:55.116Z,11.20
2023-04-17T08:30:57.010Z,10.73
2023-04-17T08:35:58.473Z,12.32
2023-04-17T08:41:02.878Z,9.55
2023-04-17T08:46:04.548Z,7.40
2023-04-17T08:51:06.002Z,12.55
2023-04-17T08:56:09.001Z,8.70
2023-04-17T09:01:11.687Z,14.00
2023-04-17T09:06:13.824Z,8.10
2023-04-17T09:11:18.056Z,7.68
2023-04-17T09:21:27.965Z,11.35
2023-04-17T09:26:31.450Z,8.87
2023-04-17T09:31:34.685Z,12.57
2023-04-17T09:36:39.989Z,11.20
2023-04-17T09:41:41.737Z,9.27
2023-04-17T09:46:47.634Z,11.95
2023-04-17T09:51:49.940Z,8.43
2023-04-17T09:56:52.259Z,11.00
2023-04-17T10:01:54.228Z,9.80
2023-04-17T10:06:57.496Z,9.00
2023-04-17T10:11:59.914Z,14.65
2023-04-17T10:17:21.593Z,31.20
2023-04-17T10:22:24.432Z,16.27
2023-04-17T10:27:26.219Z,19.13
2023-04-17T10:32:29.019Z,16.85
2023-04-17T10:37:51.856Z,16.88
2023-04-17T10:43:12.076Z,13.77
2023-04-17T10:48:35.998Z,11.10
2023-04-17T10:53:38.237Z,15.70
2023-04-17T10:58:54.361Z,10.13
2023-04-17T11:03:56.683Z,13.10
2023-04-17T11:08:58.901Z,14.43
2023-04-17T11:14:00.265Z,9.32
2023-04-17T11:19:01.988Z,9.57
2023-04-17T11:24:03.417Z,11.77
2023-04-17T11:29:13.324Z,12.70
2023-04-17T11:34:16.161Z,13.68
2023-04-17T11:39:17.821Z,15.60
2023-04-17T11:44:20.510Z,15.02
2023-04-17T11:49:25.458Z,14.40
2023-04-17T11:54:31.239Z,12.38
2023-04-17T11:59:37.731Z,10.27
2023-04-17T12:04:39.973Z,10.20
2023-04-17T12:09:41.695Z,12.65
2023-04-17T12:14:43.069Z,14.13
2023-04-17T12:19:45.240Z,12.27
2023-04-17T12:24:46.738Z,10.60
2023-04-17T12:29:48.139Z,8.43
2023-04-17T12:34:49.563Z,9.77
2023-04-17T12:39:51.081Z,16.00
2023-04-17T12:44:52.410Z,9.77
2023-04-17T12:49:53.872Z,12.38
2023-04-17T12:54:59.538Z,12.27
2023-04-17T13:00:00.980Z,12.80
2023-04-17T13:05:02.725Z,14.20
2023-04-17T13:10:04.354Z,14.05
2023-04-17T13:15:06.307Z,11.57
2023-04-17T13:20:07.808Z,11.60
2023-04-17T13:25:09.568Z,16.15
2023-04-17T13:30:11.743Z,11.57
2023-04-17T13:35:13.507Z,12.73
2023-04-17T13:40:17.207Z,11.50
2023-04-17T13:45:18.808Z,12.63
2023-04-17T13:50:20.250Z,8.13
2023-04-17T13:55:21.624Z,11.48
2023-04-17T14:00:23.067Z,10.40
2023-04-17T14:05:24.547Z,10.15
2023-04-17T14:10:25.862Z,10.80
2023-04-17T14:15:27.446Z,11.88
2023-04-17T14:20:29.052Z,15.75
2023-04-17T14:25:30.387Z,10.98
2023-04-17T14:30:31.697Z,10.07
2023-04-17T14:35:33.513Z,11.00
2023-04-17T14:40:34.985Z,15.13
2023-04-17T14:45:36.823Z,12.88
2023-04-17T14:50:38.203Z,10.25
2023-04-17T14:55:39.685Z,11.05
2023-04-17T15:00:41.090Z,10.63
2023-04-17T15:05:42.552Z,14.00
2023-04-17T15:10:50.597Z,12.20
2023-04-17T15:15:52.929Z,13.82
2023-04-17T15:20:54.315Z,12.82
2023-04-17T15:25:57.432Z,10.80
2023-04-17T15:30:58.787Z,12.98
2023-04-17T15:36:00.436Z,14.25
2023-04-17T15:41:03.457Z,13.85
2023-04-17T15:46:05.160Z,15.25
2023-04-17T15:51:07.050Z,12.32
2023-04-17T15:56:08.547Z,13.27
2023-04-17T16:01:10.850Z,10.60
2023-04-17T16:06:12.339Z,12.35
2023-04-17T16:11:13.941Z,17.10
2023-04-17T16:16:15.835Z,12.23
2023-04-17T16:21:17.217Z,18.20
2023-04-17T16:26:18.556Z,12.05
2023-04-17T16:31:21.310Z,13.48
2023-04-17T16:36:22.693Z,11.30
2023-04-17T16:41:24.066Z,15.27
2023-04-17T16:46:35.541Z,11.80
2023-04-17T16:51:47.079Z,57.28
2023-04-17T16:56:48.985Z,21.55
2023-04-17T17:01:50.417Z,24.17
2023-04-17T17:06:51.751Z,17.00
2023-04-17T17:11:53.138Z,12.75
2023-04-17T17:16:54.674Z,14.32
2023-04-17T17:21:56.156Z,9.55
2023-04-17T17:26:57.497Z,18.10
2023-04-17T17:31:58.936Z,18.98
2023-04-17T17:37:00.404Z,13.07
2023-04-17T17:42:04.201Z,13.32
2023-04-17T17:47:07.757Z,12.95
2023-04-17T17:52:09.963Z,14.55
2023-04-17T17:57:11.680Z,15.52
2023-04-17T18:02:13.358Z,17.80
2023-04-17T18:07:14.949Z,14.52
2023-04-17T18:12:16.353Z,15.32
2023-04-17T18:17:17.687Z,14.85
2023-04-17T18:22:21.308Z,14.57
2023-04-17T18:27:22.684Z,16.30
2023-04-17T18:32:24.028Z,14.82
2023-04-17T18:37:25.468Z,18.50
2023-04-17T18:42:26.808Z,15.45
2023-04-17T18:47:28.272Z,15.02
2023-04-17T18:52:29.721Z,13.88
2023-04-17T18:57:31.220Z,14.25
2023-04-17T19:02:32.779Z,16.42
2023-04-17T19:07:34.233Z,13.63
2023-04-17T19:12:36.242Z,14.55
2023-04-17T19:17:37.771Z,13.80
2023-04-17T19:22:39.211Z,15.57
2023-04-17T19:27:40.609Z,13.65
2023-04-17T19:32:41.965Z,17.10
2023-04-17T19:37:43.291Z,12.32
2023-04-17T19:42:44.621Z,15.35
2023-04-17T19:47:46.130Z,14.30
2023-04-17T19:52:47.502Z,21.48
2023-04-17T19:57:50.322Z,14.27
2023-04-17T20:02:51.847Z,13.85
2023-04-17T20:07:53.554Z,14.77
2023-04-17T20:12:54.957Z,13.27
2023-04-17T20:17:56.323Z,15.50
2023-04-17T20:22:57.694Z,15.27
2023-04-17T20:27:59.425Z,16.65
2023-04-17T20:33:01.458Z,14.45
2023-04-17T20:38:02.885Z,15.02
2023-04-17T20:43:04.240Z,14.85
2023-04-17T20:48:05.873Z,18.17
2023-04-17T20:53:07.265Z,17.17
2023-04-17T20:58:08.798Z,14.48
2023-04-17T21:03:10.453Z,14.35
2023-04-17T21:08:11.834Z,16.88
2023-04-17T21:13:13.217Z,18.92
2023-04-17T21:18:14.637Z,18.05
2023-04-17T21:23:15.986Z,16.50
2023-04-17T21:28:17.376Z,18.23
2023-04-17T21:33:18.749Z,15.75
2023-04-17T21:38:20.214Z,14.55
2023-04-17T21:43:22.655Z,11.98
2023-04-17T21:48:24.034Z,16.05
2023-04-17T21:53:25.422Z,13.38
2023-04-17T21:58:26.777Z,13.20
2023-04-17T22:03:29.300Z,15.13
2023-04-17T22:08:30.755Z,13.82
2023-04-17T22:13:32.101Z,18.45
2023-04-17T22:18:33.474Z,17.33
2023-04-17T22:23:34.852Z,22.38
2023-04-17T22:28:36.390Z,22.92
2023-04-17T22:33:37.887Z,23.88
2023-04-17T22:38:39.320Z,25.23
2023-04-17T22:43:40.840Z,19.95
2023-04-17T22:48:44.485Z,20.87
2023-04-17T22:53:46.605Z,24.57
2023-04-17T22:58:48.008Z,20.97
2023-04-17T23:03:49.368Z,25.33
2023-04-17T23:08:50.769Z,24.40
2023-04-17T23:13:52.131Z,21.63
2023-04-17T23:18:53.476Z,22.67
2023-04-17T23:23:55.213Z,20.83
2023-04-17T23:28:56.565Z,22.52
2023-04-17T23:33:57.929Z,19.50
2023-04-17T23:38:59.238Z,19.67
2023-04-17T23:44:00.816Z,24.50
2023-04-17T23:49:03.020Z,25.60
2023-04-17T23:54:04.694Z,18.43
2023-04-17T23:59:06.047Z,17.73
